createdAt,value
2019-04-07T00:00:11.995Z,73.17
2019-04-07T00:01:02.728Z,66.80
2019-04-07T00:01:50.711Z,71.27
2019-04-07T00:02:37.127Z,68.30
2019-04-07T00:03:23.111Z,67.80
2019-04-07T00:04:09.337Z,70.27
2019-04-07T00:04:55.794Z,74.07
2019-04-07T00:05:42.582Z,70.70
2019-04-07T00:06:29.435Z,70.63
2019-04-07T00:07:15.815Z,67.13
2019-04-07T00:08:02.189Z,70.83
2019-04-07T00:08:48.255Z,70.27
2019-04-07T00:09:34.674Z,67.30
2019-04-07T00:10:20.684Z,70.17
2019-04-07T00:11:06.791Z,70.90
2019-04-07T00:11:53.609Z,70.47
2019-04-07T00:12:40.102Z,73.67
2019-04-07T00:13:27.165Z,70.20
2019-04-07T00:14:13.859Z,71.40
2019-04-07T00:15:00.617Z,75.10
2019-04-07T00:15:46.684Z,65.30
2019-04-07T00:16:32.843Z,73.27
2019-04-07T00:17:19.232Z,71.23
2019-04-07T00:18:05.438Z,69.77
2019-04-07T00:18:51.306Z,69.17
2019-04-07T00:19:37.733Z,71.00
2019-04-07T00:20:24.159Z,65.73
2019-04-07T00:21:10.060Z,75.17
2019-04-07T00:21:56.758Z,71.17
2019-04-07T00:22:42.867Z,65.97
2019-04-07T00:23:29.562Z,76.50
2019-04-07T00:24:15.635Z,75.33
2019-04-07T00:25:02.480Z,72.77
2019-04-07T00:25:48.888Z,71.43
2019-04-07T00:26:34.865Z,73.43
2019-04-07T00:27:21.245Z,73.30
2019-04-07T00:28:07.636Z,73.10
2019-04-07T00:28:53.659Z,70.63
2019-04-07T00:29:39.819Z,72.00
2019-04-07T00:30:25.840Z,74.10
2019-04-07T00:31:12.278Z,66.27
2019-04-07T00:31:58.223Z,76.83
2019-04-07T00:32:44.285Z,78.57
2019-04-07T00:33:31.012Z,68.97
2019-04-07T00:34:17.480Z,71.90
2019-04-07T00:35:04.423Z,70.90
2019-04-07T00:35:50.927Z,71.30
2019-04-07T00:36:37.909Z,72.23
2019-04-07T00:37:24.546Z,74.03
2019-04-07T00:38:10.724Z,76.47
2019-04-07T00:38:56.738Z,74.33
2019-04-07T00:39:43.447Z,74.93
2019-04-07T00:40:29.808Z,75.40
2019-04-07T00:41:17.292Z,72.27
2019-04-07T00:42:03.855Z,70.77
2019-04-07T00:42:50.192Z,74.43
2019-04-07T00:43:36.363Z,77.03
2019-04-07T00:44:22.787Z,76.80
2019-04-07T00:45:08.909Z,70.00
2019-04-07T00:45:55.061Z,74.50
2019-04-07T00:46:40.970Z,72.13
2019-04-07T00:47:26.916Z,77.63
2019-04-07T00:48:13.204Z,77.23
2019-04-07T00:49:00.295Z,77.20
2019-04-07T00:49:46.703Z,76.00
2019-04-07T00:50:33.283Z,71.57
2019-04-07T00:51:19.217Z,72.73
2019-04-07T00:52:06.158Z,68.90
2019-04-07T00:52:53.089Z,68.53
2019-04-07T00:53:39.495Z,75.10
2019-04-07T00:54:25.513Z,71.70
2019-04-07T00:55:11.935Z,67.80
2019-04-07T00:55:58.402Z,71.77
2019-04-07T00:56:44.708Z,71.87
2019-04-07T00:57:30.638Z,73.87
2019-04-07T00:58:16.605Z,79.03
2019-04-07T00:59:02.791Z,75.53
2019-04-07T00:59:49.021Z,73.60
2019-04-07T01:00:36.634Z,72.37
2019-04-07T01:01:22.947Z,67.77
2019-04-07T01:02:09.096Z,72.37
2019-04-07T01:02:55.200Z,70.47
2019-04-07T01:03:42.301Z,77.40
2019-04-07T01:04:29.467Z,79.70
2019-04-07T01:05:15.613Z,68.97
2019-04-07T01:06:02.160Z,73.37
2019-04-07T01:06:49.422Z,70.42
2019-04-07T01:07:36.252Z,70.23
2019-04-07T01:08:22.891Z,69.77
2019-04-07T01:09:09.596Z,73.60
2019-04-07T01:09:55.909Z,74.30
2019-04-07T01:10:41.907Z,69.80
2019-04-07T01:11:27.848Z,76.60
2019-04-07T01:12:13.999Z,78.90
2019-04-07T01:13:00.959Z,72.73
2019-04-07T01:13:47.375Z,72.70
2019-04-07T01:14:33.744Z,72.33
2019-04-07T01:15:19.968Z,75.27
2019-04-07T01:16:06.581Z,70.23
2019-04-07T01:16:52.981Z,73.57
2019-04-07T01:17:39.288Z,77.63
2019-04-07T01:18:30.502Z,86.03
2019-04-07T01:19:16.815Z,69.87
2019-04-07T01:20:05.214Z,77.70
2019-04-07T01:20:51.899Z,82.10
2019-04-07T01:21:38.440Z,75.37
2019-04-07T01:22:24.440Z,84.47
2019-04-07T01:23:10.730Z,78.70
2019-04-07T01:23:56.930Z,78.00
2019-04-07T01:24:43.139Z,77.53
2019-04-07T01:25:29.500Z,75.70
2019-04-07T01:26:15.348Z,79.37
2019-04-07T01:27:01.220Z,81.97
2019-04-07T01:27:47.024Z,77.77
2019-04-07T01:28:32.955Z,74.67
2019-04-07T01:29:19.983Z,83.33
2019-04-07T01:30:07.124Z,77.10
2019-04-07T01:30:53.531Z,71.30
2019-04-07T01:31:39.542Z,88.37
2019-04-07T01:32:25.783Z,80.70
2019-04-07T01:33:12.108Z,80.83
2019-04-07T01:33:58.725Z,73.53
2019-04-07T01:34:44.875Z,72.83
2019-04-07T01:35:30.807Z,74.50
2019-04-07T01:36:17.240Z,79.40
2019-04-07T01:37:03.550Z,73.87
2019-04-07T01:37:50.642Z,79.73
2019-04-07T01:38:37.848Z,85.50
2019-04-07T01:39:24.197Z,80.50
2019-04-07T01:40:10.261Z,77.00
2019-04-07T01:41:02.185Z,74.83
2019-04-07T01:42:06.877Z,74.40
2019-04-07T01:43:08.484Z,69.60
2019-04-07T01:44:23.358Z,77.22
2019-04-07T01:45:29.118Z,78.23
2019-04-07T01:46:29.200Z,74.43
2019-04-07T01:47:27.720Z,74.60
2019-04-07T01:48:24.711Z,75.43
2019-04-07T01:49:30.526Z,78.42
2019-04-07T01:50:26.400Z,77.90
2019-04-07T01:51:25.867Z,78.77
2019-04-07T01:52:18.216Z,75.20
2019-04-07T01:53:18.020Z,78.60
2019-04-07T01:54:29.643Z,69.63
2019-04-07T01:55:38.919Z,72.30
2019-04-07T01:56:50.804Z,75.20
2019-04-07T01:58:06.170Z,80.43
2019-04-07T01:59:12.087Z,74.57
2019-04-07T02:00:17.288Z,70.33
2019-04-07T02:01:10.831Z,78.35
2019-04-07T02:02:05.925Z,72.42
2019-04-07T02:03:06.575Z,72.37
2019-04-07T02:04:11.600Z,71.83
2019-04-07T02:05:04.452Z,77.17
2019-04-07T02:06:06.872Z,72.97
2019-04-07T02:07:12.990Z,68.87
2019-04-07T02:08:28.062Z,67.07
2019-04-07T02:09:43.308Z,62.60
2019-04-07T02:10:41.610Z,70.40
2019-04-07T02:11:47.919Z,68.10
2019-04-07T02:12:48.988Z,62.90
2019-04-07T02:14:03.759Z,76.03
2019-04-07T02:15:09.730Z,66.90
2019-04-07T02:16:05.022Z,69.40
2019-04-07T02:17:30.097Z,65.87
2019-04-07T02:18:32.046Z,68.73
2019-04-07T02:19:45.961Z,74.83
2019-04-07T02:21:03.439Z,69.30
2019-04-07T02:22:16.307Z,75.23
2019-04-07T02:23:21.524Z,67.90
2019-04-07T02:24:21.763Z,73.07
2019-04-07T02:25:19.870Z,80.77
2019-04-07T02:26:11.610Z,75.92
2019-04-07T02:27:14.059Z,69.87
2019-04-07T02:28:22.997Z,75.77
2019-04-07T02:29:28.034Z,70.28
2019-04-07T02:30:27.237Z,70.27
2019-04-07T02:31:31.903Z,69.30
2019-04-07T02:32:32.557Z,77.60
2019-04-07T02:33:37.270Z,76.33
2019-04-07T02:34:34.030Z,70.85
2019-04-07T02:35:31.929Z,76.40
2019-04-07T02:36:34.108Z,78.25
2019-04-07T02:37:33.355Z,73.05
2019-04-07T02:38:42.453Z,71.30
2019-04-07T02:39:50.774Z,76.72
2019-04-07T02:40:45.888Z,82.30
2019-04-07T02:42:04.721Z,76.82
2019-04-07T02:43:16.123Z,72.40
2019-04-07T02:44:10.805Z,77.32
2019-04-07T02:45:29.002Z,77.05
2019-04-07T02:46:40.940Z,76.03
2019-04-07T02:47:50.046Z,68.53
2019-04-07T02:49:08.646Z,67.45
2019-04-07T02:50:20.575Z,70.20
2019-04-07T02:51:22.899Z,68.75
2019-04-07T02:52:28.083Z,80.03
2019-04-07T02:53:33.178Z,71.20
2019-04-07T02:54:42.096Z,69.32
2019-04-07T02:55:48.394Z,78.47
2019-04-07T02:56:50.339Z,79.77
2019-04-07T02:58:05.845Z,68.35
2019-04-07T02:59:00.234Z,72.53
2019-04-07T03:00:15.977Z,64.20
2019-04-07T03:01:27.788Z,67.12
2019-04-07T03:02:23.305Z,69.37
2019-04-07T03:03:27.219Z,68.33
2019-04-07T03:04:30.948Z,70.25
2019-04-07T03:05:40.503Z,67.22
2019-04-07T03:06:53.434Z,66.70
2019-04-07T03:07:56.651Z,66.70
2019-04-07T03:09:01.949Z,69.15
2019-04-07T03:10:08.854Z,63.45
2019-04-07T03:11:18.107Z,69.35
2019-04-07T03:12:10.580Z,67.60
2019-04-07T03:13:21.257Z,77.03
2019-04-07T03:14:21.634Z,73.80
2019-04-07T03:15:30.897Z,67.92
2019-04-07T03:16:35.666Z,70.92
2019-04-07T03:17:50.326Z,69.65
2019-04-07T03:18:44.513Z,66.00
2019-04-07T03:19:37.213Z,74.77
2019-04-07T03:20:41.965Z,76.15
2019-04-07T03:21:48.307Z,68.60
2019-04-07T03:22:42.099Z,71.55
2019-04-07T03:23:39.762Z,72.70
2019-04-07T03:24:38.894Z,63.87
2019-04-07T03:25:47.328Z,69.03
2019-04-07T03:27:08.410Z,70.22
2019-04-07T03:28:08.676Z,66.65
2019-04-07T03:29:18.230Z,68.83
2019-04-07T03:30:25.146Z,70.35
2019-04-07T03:31:44.057Z,69.58
2019-04-07T03:32:53.260Z,69.45
2019-04-07T03:33:49.229Z,68.80
2019-04-07T03:34:58.187Z,71.67
2019-04-07T03:35:52.588Z,64.58
2019-04-07T03:37:28.852Z,64.25
2019-04-07T03:38:04.628Z,72.85
2019-04-07T03:39:04.000Z,67.37
2019-04-07T03:40:08.746Z,68.95
2019-04-07T03:41:14.651Z,67.37
2019-04-07T03:42:19.051Z,68.83
2019-04-07T03:43:31.525Z,67.60
2019-04-07T03:44:40.659Z,64.07
2019-04-07T03:45:53.871Z,68.17
2019-04-07T03:46:58.932Z,66.17
2019-04-07T03:47:51.045Z,64.85
2019-04-07T03:48:41.737Z,72.50
2019-04-07T03:49:45.601Z,77.50
2019-04-07T03:50:38.994Z,71.28
2019-04-07T03:51:37.755Z,64.40
2019-04-07T03:52:40.851Z,81.78
2019-04-07T03:53:47.361Z,69.05
2019-04-07T03:54:59.945Z,71.67
2019-04-07T03:56:05.974Z,67.92
2019-04-07T03:57:11.372Z,74.53
2019-04-07T03:58:12.398Z,63.23
2019-04-07T03:59:18.208Z,67.40
2019-04-07T04:00:35.650Z,67.78
2019-04-07T04:01:41.644Z,65.42
2019-04-07T04:02:48.394Z,64.65
2019-04-07T04:03:48.062Z,69.22
2019-04-07T04:04:41.656Z,70.12
2019-04-07T04:05:48.868Z,70.32
2019-04-07T04:06:57.160Z,72.85
2019-04-07T04:07:49.441Z,62.10
2019-04-07T04:08:43.031Z,77.60
2019-04-07T04:10:07.152Z,66.72
2019-04-07T04:11:11.652Z,65.10
2019-04-07T04:12:15.055Z,64.45
2019-04-07T04:13:27.360Z,62.20
2019-04-07T04:14:22.011Z,63.13
2019-04-07T04:15:12.555Z,65.22
2019-04-07T04:16:04.738Z,67.08
2019-04-07T04:16:51.981Z,64.58
2019-04-07T04:17:37.604Z,62.33
2019-04-07T04:18:23.501Z,60.98
2019-04-07T04:19:09.443Z,63.68
2019-04-07T04:19:55.325Z,62.78
2019-04-07T04:20:41.254Z,69.58
2019-04-07T04:21:28.784Z,65.90
2019-04-07T04:22:15.270Z,69.65
2019-04-07T04:23:01.424Z,74.17
2019-04-07T04:23:47.435Z,66.12
2019-04-07T04:24:33.683Z,65.10
2019-04-07T04:25:19.814Z,64.87
2019-04-07T04:26:06.476Z,65.03
2019-04-07T04:26:53.639Z,64.77
2019-04-07T04:27:40.052Z,69.53
2019-04-07T04:28:25.947Z,66.75
2019-04-07T04:29:12.276Z,64.65
2019-04-07T04:29:58.921Z,63.65
2019-04-07T04:30:45.273Z,64.50
2019-04-07T04:31:31.439Z,65.52
2019-04-07T04:32:17.372Z,62.98
2019-04-07T04:33:03.966Z,62.00
2019-04-07T04:33:51.674Z,66.05
2019-04-07T04:34:38.919Z,65.47
2019-04-07T04:35:25.134Z,78.78
2019-04-07T04:36:11.266Z,70.08
2019-04-07T04:36:57.979Z,72.45
2019-04-07T04:37:48.828Z,69.85
2019-04-07T04:38:32.124Z,69.25
2019-04-07T04:39:19.901Z,63.38
2019-04-07T04:40:07.276Z,65.97
2019-04-07T04:40:53.880Z,68.55
2019-04-07T04:41:40.533Z,67.65
2019-04-07T04:42:26.916Z,67.27
2019-04-07T04:43:13.828Z,62.78
2019-04-07T04:44:00.490Z,69.90
2019-04-07T04:44:47.675Z,65.12
2019-04-07T04:45:34.214Z,62.95
2019-04-07T04:46:21.726Z,69.42
2019-04-07T04:47:08.071Z,79.32
2019-04-07T04:47:54.760Z,62.30
2019-04-07T04:48:41.121Z,73.28
2019-04-07T04:49:28.782Z,66.85
2019-04-07T04:50:15.227Z,76.15
2019-04-07T04:51:02.197Z,71.85
2019-04-07T04:51:48.621Z,81.28
2019-04-07T04:52:36.184Z,62.75
2019-04-07T04:53:23.744Z,69.27
2019-04-07T04:54:11.094Z,72.53
2019-04-07T04:54:57.467Z,75.50
2019-04-07T04:55:43.952Z,63.65
2019-04-07T04:56:30.924Z,60.70
2019-04-07T04:57:17.779Z,65.70
2019-04-07T04:58:05.466Z,68.83
2019-04-07T04:58:51.963Z,74.53
2019-04-07T04:59:38.241Z,63.35
2019-04-07T05:00:24.682Z,68.07
2019-04-07T05:01:11.879Z,58.15
2019-04-07T05:01:58.895Z,62.23
2019-04-07T05:02:45.696Z,73.42
2019-04-07T05:03:32.849Z,61.20
2019-04-07T05:04:19.374Z,63.90
2019-04-07T05:05:09.039Z,66.50
2019-04-07T05:05:54.577Z,68.40
2019-04-07T05:06:41.386Z,70.10
2019-04-07T05:07:27.385Z,67.45
2019-04-07T05:08:13.392Z,65.08
2019-04-07T05:08:59.993Z,64.53
2019-04-07T05:09:50.313Z,58.55
2019-04-07T05:10:34.787Z,61.58
2019-04-07T05:11:21.241Z,66.47
2019-04-07T05:12:08.380Z,59.48
2019-04-07T05:12:55.096Z,56.02
2019-04-07T05:13:41.251Z,58.95
2019-04-07T05:14:28.413Z,56.23
2019-04-07T05:15:14.956Z,59.85
2019-04-07T05:16:01.033Z,57.78
2019-04-07T05:16:47.197Z,60.78
2019-04-07T05:17:33.688Z,60.28
2019-04-07T05:18:20.016Z,60.80
2019-04-07T05:19:06.203Z,59.70
2019-04-07T05:19:52.346Z,61.55
2019-04-07T05:20:38.752Z,59.03
2019-04-07T05:21:25.134Z,64.92
2019-04-07T05:22:11.313Z,63.35
2019-04-07T05:22:57.628Z,57.13
2019-04-07T05:23:43.962Z,59.23
2019-04-07T05:24:30.199Z,64.97
2019-04-07T05:25:17.349Z,62.00
2019-04-07T05:26:03.579Z,60.85
2019-04-07T05:26:49.755Z,56.98
2019-04-07T05:27:35.659Z,55.10
2019-04-07T05:28:22.071Z,59.48
2019-04-07T05:29:08.142Z,59.25
2019-04-07T05:29:54.536Z,66.60
2019-04-07T05:30:41.399Z,59.98
2019-04-07T05:31:28.319Z,59.67
2019-04-07T05:32:14.791Z,60.58
2019-04-07T05:33:00.963Z,63.50
2019-04-07T05:33:47.446Z,55.70
2019-04-07T05:34:34.479Z,65.70
2019-04-07T05:35:20.796Z,62.62
2019-04-07T05:36:07.095Z,67.12
2019-04-07T05:36:53.368Z,59.15
2019-04-07T05:37:39.686Z,64.20
2019-04-07T05:38:25.760Z,58.60
2019-04-07T05:39:11.988Z,65.87
2019-04-07T05:39:59.117Z,71.00
2019-04-07T05:40:46.312Z,65.22
2019-04-07T05:41:32.672Z,58.98
2019-04-07T05:42:20.006Z,58.85
2019-04-07T05:43:07.172Z,59.38
2019-04-07T05:43:53.891Z,55.33
2019-04-07T05:44:40.226Z,55.73
2019-04-07T05:45:27.032Z,55.33
2019-04-07T05:46:13.716Z,55.92
2019-04-07T05:47:00.687Z,53.50
2019-04-07T05:47:48.659Z,63.13
2019-04-07T05:48:35.000Z,58.05
2019-04-07T05:49:22.559Z,57.85
2019-04-07T05:50:09.198Z,56.30
2019-04-07T05:50:56.120Z,52.35
2019-04-07T05:51:44.574Z,57.05
2019-04-07T05:52:30.717Z,57.95
2019-04-07T05:53:17.034Z,57.15
2019-04-07T05:54:03.601Z,53.05
2019-04-07T05:54:51.411Z,55.08
2019-04-07T05:55:38.135Z,55.38
2019-04-07T05:56:28.124Z,60.15
2019-04-07T05:57:13.420Z,52.98
2019-04-07T05:57:59.628Z,56.55
2019-04-07T05:58:46.241Z,60.80
2019-04-07T05:59:32.837Z,62.27
2019-04-07T06:00:19.667Z,52.35
2019-04-07T06:01:06.315Z,61.02
2019-04-07T06:01:58.470Z,55.75
2019-04-07T06:02:41.535Z,58.50
2019-04-07T06:03:27.953Z,57.17
2019-04-07T06:04:17.882Z,54.03
2019-04-07T06:05:03.153Z,60.83
2019-04-07T06:05:51.202Z,57.95
2019-04-07T06:06:39.871Z,53.02
2019-04-07T06:07:28.805Z,54.67
2019-04-07T06:08:26.041Z,55.00
2019-04-07T06:09:01.342Z,54.42
2019-04-07T06:09:49.967Z,51.77
2019-04-07T06:10:35.795Z,51.92
2019-04-07T06:11:21.857Z,56.88
2019-04-07T06:12:09.781Z,57.95
2019-04-07T06:12:56.538Z,52.90
2019-04-07T06:13:44.619Z,52.88
2019-04-07T06:14:30.863Z,52.95
2019-04-07T06:15:21.004Z,52.48
2019-04-07T06:16:05.354Z,52.70
2019-04-07T06:16:54.229Z,49.67
2019-04-07T06:17:40.018Z,58.17
2019-04-07T06:18:27.146Z,50.33
2019-04-07T06:19:14.907Z,50.33
2019-04-07T06:20:01.530Z,52.00
2019-04-07T06:20:48.492Z,53.38
2019-04-07T06:21:34.842Z,47.40
2019-04-07T06:22:21.996Z,51.92
2019-04-07T06:23:09.384Z,53.78
2019-04-07T06:23:59.415Z,54.63
2019-04-07T06:24:43.879Z,53.07
2019-04-07T06:25:33.246Z,53.33
2019-04-07T06:26:17.841Z,53.60
2019-04-07T06:27:04.378Z,55.00
2019-04-07T06:27:51.651Z,52.75
2019-04-07T06:28:38.120Z,51.40
2019-04-07T06:29:26.349Z,49.97
2019-04-07T06:30:12.967Z,52.83
2019-04-07T06:31:00.822Z,55.27
2019-04-07T06:31:48.352Z,52.93
2019-04-07T06:32:36.835Z,53.90
2019-04-07T06:33:22.992Z,53.07
2019-04-07T06:34:11.150Z,55.67
2019-04-07T06:34:57.138Z,53.50
2019-04-07T06:35:45.632Z,53.80
2019-04-07T06:36:32.044Z,52.37
2019-04-07T06:37:18.748Z,61.67
2019-04-07T06:38:06.700Z,50.60
2019-04-07T06:38:53.671Z,55.57
2019-04-07T06:39:40.598Z,53.90
2019-04-07T06:40:27.314Z,55.07
2019-04-07T06:41:13.810Z,56.20
2019-04-07T06:42:01.408Z,49.43
2019-04-07T06:42:48.825Z,48.90
2019-04-07T06:43:40.164Z,57.23
2019-04-07T06:44:26.640Z,53.17
2019-04-07T06:45:15.341Z,51.23
2019-04-07T06:46:08.320Z,58.50
2019-04-07T06:47:06.470Z,50.10
2019-04-07T06:47:56.201Z,53.07
2019-04-07T06:49:01.630Z,58.57
2019-04-07T06:50:14.163Z,58.53
2019-04-07T06:51:18.973Z,53.87
2019-04-07T06:52:17.202Z,58.73
2019-04-07T06:53:16.323Z,54.37
2019-04-07T06:54:22.323Z,57.47
2019-04-07T06:55:33.001Z,56.37
2019-04-07T06:56:32.149Z,55.57
2019-04-07T06:57:37.430Z,55.63
2019-04-07T06:58:42.935Z,54.20
2019-04-07T06:59:47.147Z,56.17
2019-04-07T07:00:43.272Z,54.60
2019-04-07T07:01:41.090Z,52.87
2019-04-07T07:02:37.981Z,51.13
2019-04-07T07:03:35.880Z,53.23
2019-04-07T07:04:45.597Z,52.63
2019-04-07T07:05:50.585Z,53.40
2019-04-07T07:06:56.951Z,52.07
2019-04-07T07:08:21.066Z,56.00
2019-04-07T07:09:27.816Z,53.10
2019-04-07T07:10:50.612Z,47.90
2019-04-07T07:12:00.624Z,46.30
2019-04-07T07:13:25.772Z,50.30
2019-04-07T07:14:10.425Z,49.27
2019-04-07T07:15:20.571Z,47.70
2019-04-07T07:16:26.996Z,49.27
2019-04-07T07:17:47.849Z,49.90
2019-04-07T07:18:47.071Z,48.17
2019-04-07T07:19:55.132Z,48.30
2019-04-07T07:21:02.551Z,46.67
2019-04-07T07:22:10.057Z,46.77
2019-04-07T07:23:00.687Z,47.57
2019-04-07T07:23:48.874Z,43.83
2019-04-07T07:24:34.881Z,44.87
2019-04-07T07:25:21.541Z,42.50
2019-04-07T07:26:09.256Z,42.93
2019-04-07T07:26:57.956Z,43.67
2019-04-07T07:27:46.094Z,47.10
2019-04-07T07:28:32.606Z,43.77
2019-04-07T07:29:19.062Z,44.83
2019-04-07T07:30:06.540Z,45.13
2019-04-07T07:30:53.746Z,42.63
2019-04-07T07:31:40.896Z,43.13
2019-04-07T07:32:28.067Z,41.67
2019-04-07T07:33:14.843Z,41.90
2019-04-07T07:34:01.423Z,42.40
2019-04-07T07:34:47.773Z,40.97
2019-04-07T07:35:34.321Z,40.40
2019-04-07T07:36:22.407Z,39.42
2019-04-07T07:37:09.379Z,40.43
2019-04-07T07:37:57.488Z,40.28
2019-04-07T07:38:55.575Z,40.43
2019-04-07T07:39:32.092Z,42.13
2019-04-07T07:40:18.497Z,41.75
2019-04-07T07:41:05.175Z,38.35
2019-04-07T07:41:53.073Z,39.85
2019-04-07T07:42:39.400Z,38.80
2019-04-07T07:43:27.921Z,37.48
2019-04-07T07:44:13.495Z,38.83
2019-04-07T07:44:59.803Z,36.63
2019-04-07T07:45:48.091Z,36.60
2019-04-07T07:46:34.426Z,38.02
2019-04-07T07:47:22.915Z,36.13
2019-04-07T07:48:09.909Z,36.95
2019-04-07T07:48:58.988Z,37.03
2019-04-07T07:49:43.963Z,35.85
2019-04-07T07:50:30.343Z,36.63
2019-04-07T07:51:16.482Z,36.28
2019-04-07T07:52:02.909Z,35.25
2019-04-07T07:52:51.280Z,36.25
2019-04-07T07:53:37.190Z,33.75
2019-04-07T07:54:23.367Z,34.63
2019-04-07T07:55:11.956Z,33.67
2019-04-07T07:55:58.037Z,33.60
2019-04-07T07:56:48.551Z,35.03
2019-04-07T07:57:32.671Z,32.95
2019-04-07T07:58:19.410Z,32.42
2019-04-07T07:59:06.247Z,32.50
2019-04-07T07:59:52.381Z,33.90
2019-04-07T08:00:42.133Z,31.60
2019-04-07T08:01:26.764Z,31.90
2019-04-07T08:02:14.618Z,30.30
2019-04-07T08:03:00.895Z,28.98
2019-04-07T08:03:47.148Z,31.48
2019-04-07T08:04:33.474Z,31.65
2019-04-07T08:05:19.715Z,32.25
2019-04-07T08:06:08.212Z,33.83
2019-04-07T08:06:54.461Z,33.08
2019-04-07T08:07:43.756Z,33.13
2019-04-07T08:08:28.691Z,32.85
2019-04-07T08:09:18.671Z,31.12
2019-04-07T08:10:03.395Z,31.35
2019-04-07T08:10:49.362Z,30.75
2019-04-07T08:11:35.609Z,29.80
2019-04-07T08:12:21.875Z,30.45
2019-04-07T08:13:09.000Z,31.20
2019-04-07T08:13:55.527Z,28.85
2019-04-07T08:14:42.637Z,29.60
2019-04-07T08:15:32.343Z,29.65
2019-04-07T08:16:17.389Z,26.73
2019-04-07T08:17:04.101Z,26.68
2019-04-07T08:17:50.893Z,27.93
2019-04-07T08:18:40.676Z,26.02
2019-04-07T08:19:29.635Z,24.47
2019-04-07T08:20:15.347Z,26.75
2019-04-07T08:21:02.231Z,25.92
2019-04-07T08:21:51.209Z,24.52
2019-04-07T08:22:42.922Z,24.77
2019-04-07T08:23:25.323Z,24.23
2019-04-07T08:24:17.097Z,25.57
2019-04-07T08:25:01.101Z,25.52
2019-04-07T08:25:47.132Z,26.68
2019-04-07T08:26:33.393Z,27.00
2019-04-07T08:27:20.529Z,26.37
2019-04-07T08:28:06.509Z,28.77
2019-04-07T08:28:53.365Z,28.70
2019-04-07T08:29:39.936Z,26.85
2019-04-07T08:30:26.115Z,29.18
2019-04-07T08:31:13.196Z,26.75
2019-04-07T08:31:59.813Z,28.02
2019-04-07T08:32:46.112Z,27.55
2019-04-07T08:33:32.229Z,26.87
2019-04-07T08:34:18.939Z,27.15
2019-04-07T08:35:05.739Z,27.02
2019-04-07T08:35:54.846Z,27.35
2019-04-07T08:36:41.952Z,28.07
2019-04-07T08:37:29.626Z,28.17
2019-04-07T08:38:19.315Z,26.23
2019-04-07T08:39:07.263Z,29.50
2019-04-07T08:39:56.704Z,29.15
2019-04-07T08:40:42.775Z,26.65
2019-04-07T08:41:31.268Z,27.07
2019-04-07T08:42:18.959Z,26.48
2019-04-07T08:43:06.102Z,26.90
2019-04-07T08:43:55.432Z,26.33
2019-04-07T08:44:40.845Z,26.93
2019-04-07T08:45:30.003Z,27.60
2019-04-07T08:46:15.288Z,28.55
2019-04-07T08:47:02.864Z,26.95
2019-04-07T08:47:50.670Z,26.42
2019-04-07T08:48:37.634Z,26.82
2019-04-07T08:49:25.500Z,26.50
2019-04-07T08:50:12.549Z,25.27
2019-04-07T08:51:00.595Z,27.05
2019-04-07T08:51:47.283Z,25.37
2019-04-07T08:52:34.314Z,23.67
2019-04-07T08:53:20.844Z,26.25
2019-04-07T08:54:08.539Z,25.00
2019-04-07T08:54:54.606Z,26.00
2019-04-07T08:55:40.606Z,25.50
2019-04-07T08:56:27.779Z,25.55
2019-04-07T08:57:14.121Z,26.33
2019-04-07T08:58:02.531Z,26.05
2019-04-07T08:58:49.005Z,23.92
2019-04-07T08:59:39.583Z,25.30
2019-04-07T09:00:24.932Z,24.87
2019-04-07T09:01:12.043Z,22.75
2019-04-07T09:01:58.360Z,23.45
2019-04-07T09:02:45.006Z,24.23
2019-04-07T09:03:31.477Z,22.87
2019-04-07T09:04:18.910Z,23.75
2019-04-07T09:05:05.507Z,24.18
2019-04-07T09:05:52.406Z,23.62
2019-04-07T09:06:39.674Z,23.85
2019-04-07T09:07:25.675Z,22.32
2019-04-07T09:08:11.794Z,22.85
2019-04-07T09:08:57.710Z,22.55
2019-04-07T09:09:47.422Z,23.05
2019-04-07T09:10:45.138Z,22.13
2019-04-07T09:11:32.219Z,23.47
2019-04-07T09:12:19.629Z,21.52
2019-04-07T09:13:08.352Z,23.30
2019-04-07T09:13:55.843Z,23.75
2019-04-07T09:14:42.192Z,23.60
2019-04-07T09:15:34.978Z,22.20
2019-04-07T09:16:41.581Z,21.15
2019-04-07T09:17:48.709Z,22.27
2019-04-07T09:19:00.621Z,22.98
2019-04-07T09:20:00.738Z,23.50
2019-04-07T09:21:13.311Z,24.05
2019-04-07T09:22:20.105Z,22.95
2019-04-07T09:23:34.369Z,24.98
2019-04-07T09:24:47.211Z,24.43
2019-04-07T09:26:00.179Z,22.15
2019-04-07T09:27:04.059Z,22.30
2019-04-07T09:28:10.057Z,21.68
2019-04-07T09:29:36.391Z,20.88
2019-04-07T09:30:40.869Z,21.25
2019-04-07T09:32:02.223Z,21.87
2019-04-07T09:33:15.989Z,21.68
2019-04-07T09:34:22.255Z,21.07
2019-04-07T09:35:22.848Z,21.33
2019-04-07T09:36:26.592Z,20.82
2019-04-07T09:37:35.490Z,20.25
2019-04-07T09:38:59.992Z,21.23
2019-04-07T09:40:16.398Z,20.95
2019-04-07T09:41:33.121Z,21.12
2019-04-07T09:42:41.559Z,22.85
2019-04-07T09:43:36.732Z,23.07
2019-04-07T09:44:37.354Z,22.50
2019-04-07T09:45:42.694Z,22.65
2019-04-07T09:46:57.560Z,23.70
2019-04-07T09:47:54.111Z,22.95
2019-04-07T09:49:02.032Z,21.27
2019-04-07T09:50:20.305Z,23.40
2019-04-07T09:51:33.091Z,22.02
2019-04-07T09:52:49.149Z,23.50
2019-04-07T09:53:42.606Z,20.50
2019-04-07T09:54:46.439Z,21.17
2019-04-07T09:55:51.540Z,22.50
2019-04-07T09:57:05.938Z,22.07
2019-04-07T09:58:02.851Z,22.50
2019-04-07T09:59:07.890Z,21.50
2019-04-07T10:00:07.171Z,20.92
2019-04-07T10:01:11.044Z,21.50
2019-04-07T10:02:20.801Z,20.37
2019-04-07T10:03:18.068Z,20.02
2019-04-07T10:04:25.683Z,20.50
2019-04-07T10:05:35.036Z,20.12
2019-04-07T10:06:53.120Z,20.17
2019-04-07T10:07:48.885Z,22.75
2019-04-07T10:08:54.287Z,21.80
2019-04-07T10:10:14.522Z,21.07
2019-04-07T10:11:16.072Z,19.62
2019-04-07T10:12:09.189Z,20.68
2019-04-07T10:13:06.607Z,18.73
2019-04-07T10:14:04.457Z,20.72
2019-04-07T10:15:14.046Z,19.45
2019-04-07T10:16:19.990Z,19.32
2019-04-07T10:17:26.175Z,19.95
2019-04-07T10:18:32.842Z,19.40
2019-04-07T10:19:50.008Z,19.87
2019-04-07T10:21:01.644Z,18.35
2019-04-07T10:22:05.498Z,16.82
2019-04-07T10:23:16.261Z,17.65
2019-04-07T10:24:09.460Z,19.62
2019-04-07T10:25:11.023Z,17.25
2019-04-07T10:26:19.143Z,17.07
2019-04-07T10:27:13.073Z,16.80
2019-04-07T10:28:26.582Z,15.60
2019-04-07T10:29:51.390Z,16.37
2019-04-07T10:30:54.059Z,16.07
2019-04-07T10:31:57.639Z,16.62
2019-04-07T10:33:15.856Z,16.57
2019-04-07T10:34:30.913Z,16.73
2019-04-07T10:35:29.554Z,15.43
2019-04-07T10:36:50.837Z,16.67
2019-04-07T10:38:00.701Z,13.48
2019-04-07T10:39:07.345Z,13.78
2019-04-07T10:40:19.753Z,11.95
2019-04-07T10:41:25.054Z,11.15
2019-04-07T10:42:34.620Z,11.48
2019-04-07T10:43:40.679Z,10.32
2019-04-07T10:44:50.390Z,8.80
2019-04-07T10:45:57.121Z,8.75
2019-04-07T10:47:07.163Z,9.25
2019-04-07T10:48:15.882Z,8.85
2019-04-07T10:49:24.633Z,10.03
2019-04-07T10:50:29.176Z,9.93
2019-04-07T10:51:35.341Z,8.15
2019-04-07T10:52:37.970Z,7.85
2019-04-07T10:53:43.117Z,6.92
2019-04-07T10:54:53.862Z,6.35
2019-04-07T10:56:05.669Z,6.90
2019-04-07T10:57:01.231Z,6.35
2019-04-07T10:58:05.360Z,6.55
2019-04-07T10:59:10.420Z,7.37
2019-04-07T11:00:16.528Z,6.20
2019-04-07T11:01:22.170Z,6.80
2019-04-07T11:02:36.453Z,8.28
2019-04-07T11:03:49.753Z,6.53
2019-04-07T11:04:56.396Z,6.67
2019-04-07T11:06:08.785Z,6.45
2019-04-07T11:07:18.780Z,7.60
2019-04-07T11:08:16.879Z,6.53
2019-04-07T11:09:23.556Z,7.97
2019-04-07T11:10:37.847Z,6.62
2019-04-07T11:11:39.237Z,7.33
2019-04-07T11:12:51.266Z,34.75
2019-04-07T11:13:59.860Z,11.65
2019-04-07T11:15:05.258Z,7.65
2019-04-07T11:16:13.197Z,7.92
2019-04-07T11:17:06.535Z,7.20
2019-04-07T11:18:19.142Z,7.78
2019-04-07T11:19:17.775Z,7.45
2019-04-07T11:20:18.355Z,7.65
2019-04-07T11:21:34.959Z,8.55
2019-04-07T11:22:44.210Z,7.20
2019-04-07T11:23:45.166Z,7.42
2019-04-07T11:24:50.168Z,7.60
2019-04-07T11:25:51.786Z,7.60
2019-04-07T11:27:06.076Z,8.13
2019-04-07T11:28:14.753Z,7.50
2019-04-07T11:29:08.526Z,7.60
2019-04-07T11:30:09.732Z,6.90
2019-04-07T11:31:24.512Z,7.90
2019-04-07T11:32:34.811Z,7.60
2019-04-07T11:33:31.494Z,10.80
2019-04-07T11:34:55.651Z,7.65
2019-04-07T11:35:48.539Z,6.90
2019-04-07T11:36:45.665Z,7.60
2019-04-07T11:37:58.452Z,7.25
2019-04-07T11:38:58.500Z,7.20
2019-04-07T11:39:51.227Z,8.13
2019-04-07T11:41:00.236Z,7.97
2019-04-07T11:41:54.483Z,6.92